createdAt,value
2022-12-22T00:00:51.402Z,6.7
2022-12-22T00:03:51.589Z,6.7
2022-12-22T00:06:51.408Z,6.7
2022-12-22T00:09:51.419Z,6.7
2022-12-22T00:12:51.443Z,6.8
2022-12-22T00:15:51.423Z,6.8
2022-12-22T00:18:51.430Z,6.8
2022-12-22T00:21:51.429Z,6.8
2022-12-22T00:24:51.464Z,6.8
2022-12-22T00:27:51.432Z,6.8
2022-12-22T00:30:51.530Z,6.8
2022-12-22T00:33:51.464Z,6.9
2022-12-22T00:36:51.454Z,6.8
2022-12-22T00:39:51.464Z,6.9
2022-12-22T00:42:51.454Z,6.8
2022-12-22T00:45:51.482Z,6.8
2022-12-22T00:48:51.495Z,6.9
2022-12-22T00:51:51.475Z,6.9
2022-12-22T00:54:51.490Z,6.9
2022-12-22T00:57:51.475Z,6.8
2022-12-22T01:00:51.489Z,6.8
2022-12-22T01:03:51.580Z,6.8
2022-12-22T01:06:51.518Z,6.8
2022-12-22T01:09:51.503Z,6.7
2022-12-22T01:12:51.508Z,6.7
2022-12-22T01:15:51.579Z,6.8
2022-12-22T01:18:51.506Z,6.8
2022-12-22T01:21:51.503Z,6.8
2022-12-22T01:24:51.547Z,6.8
2022-12-22T01:27:51.520Z,6.8
2022-12-22T01:30:51.582Z,6.8
2022-12-22T01:33:51.520Z,6.7
2022-12-22T01:36:51.525Z,6.8
2022-12-22T01:39:51.546Z,6.8
2022-12-22T01:42:51.554Z,6.9
2022-12-22T01:45:51.588Z,6.9
2022-12-22T01:48:51.549Z,7
2022-12-22T01:51:51.554Z,7
2022-12-22T01:54:51.564Z,7
2022-12-22T01:57:51.563Z,7
2022-12-22T02:00:51.604Z,7
2022-12-22T02:03:51.665Z,7
2022-12-22T02:06:56.374Z,7
2022-12-22T02:09:51.611Z,7.1
2022-12-22T02:12:51.606Z,7.1
2022-12-22T02:15:51.658Z,7
2022-12-22T02:18:51.659Z,7.1
2022-12-22T02:21:51.632Z,7.1
2022-12-22T02:24:51.640Z,7.1
2022-12-22T02:27:51.640Z,7.1
2022-12-22T02:30:51.696Z,7.1
2022-12-22T02:33:51.652Z,7.1
2022-12-22T02:36:51.692Z,7
2022-12-22T02:39:51.671Z,7
2022-12-22T02:42:51.673Z,7
2022-12-22T02:45:51.673Z,7
2022-12-22T02:48:51.681Z,7
2022-12-22T02:51:51.681Z,7
2022-12-22T02:54:51.717Z,7
2022-12-22T02:57:51.681Z,7
2022-12-22T03:00:51.687Z,7
2022-12-22T03:03:51.821Z,7
2022-12-22T03:06:51.713Z,7
2022-12-22T03:09:51.716Z,7
2022-12-22T03:12:51.758Z,7
2022-12-22T03:15:51.775Z,7.1
2022-12-22T03:18:51.732Z,7
2022-12-22T03:21:51.729Z,7
2022-12-22T03:24:51.769Z,7
2022-12-22T03:27:51.738Z,7.1
2022-12-22T03:30:51.765Z,7.1
2022-12-22T03:33:51.741Z,7
2022-12-22T03:36:51.740Z,7
2022-12-22T03:39:51.817Z,7
2022-12-22T03:42:51.750Z,7.1
2022-12-22T03:45:51.756Z,7.1
2022-12-22T03:48:51.787Z,7.1
2022-12-22T03:51:51.760Z,7
2022-12-22T03:54:51.775Z,7
2022-12-22T03:57:51.770Z,7
2022-12-22T04:00:51.839Z,7
2022-12-22T04:03:51.789Z,7
2022-12-22T04:06:51.821Z,7
2022-12-22T04:09:51.808Z,7
2022-12-22T04:12:51.802Z,7
2022-12-22T04:15:51.812Z,7
2022-12-22T04:18:51.814Z,7
2022-12-22T04:21:51.809Z,7
2022-12-22T04:24:51.859Z,7
2022-12-22T04:27:51.839Z,7
2022-12-22T04:30:51.855Z,7
2022-12-22T04:33:51.835Z,7
2022-12-22T04:36:51.837Z,7
2022-12-22T04:39:51.854Z,7
2022-12-22T04:42:51.873Z,7
2022-12-22T04:45:51.859Z,7
2022-12-22T04:48:56.130Z,6.9
2022-12-22T04:51:51.859Z,6.9
2022-12-22T04:54:51.877Z,7
2022-12-22T04:57:51.868Z,7
2022-12-22T05:00:51.946Z,6.9
2022-12-22T05:03:51.929Z,6.9
2022-12-22T05:06:51.878Z,6.9
2022-12-22T05:09:51.895Z,6.9
2022-12-22T05:12:51.886Z,6.9
2022-12-22T05:15:51.892Z,6.9
2022-12-22T05:18:51.923Z,6.9
2022-12-22T05:21:51.906Z,6.8
2022-12-22T05:24:51.924Z,6.8
2022-12-22T05:27:51.924Z,6.7
2022-12-22T05:30:51.954Z,6.6
2022-12-22T05:33:51.926Z,6.6
2022-12-22T05:36:51.950Z,6.6
2022-12-22T05:39:51.945Z,6.5
2022-12-22T05:42:51.931Z,6.6
2022-12-22T05:45:51.939Z,6.5
2022-12-22T05:48:51.955Z,6.5
2022-12-22T05:51:51.944Z,6.6
2022-12-22T05:54:51.987Z,6.6
2022-12-22T05:57:51.959Z,6.6
2022-12-22T06:00:51.994Z,6.6
2022-12-22T06:03:56.217Z,6.6
2022-12-22T06:06:51.975Z,6.7
2022-12-22T06:09:51.987Z,6.7
2022-12-22T06:12:52.007Z,6.6
2022-12-22T06:15:52.061Z,6.6
2022-12-22T06:18:51.992Z,6.6
2022-12-22T06:21:51.997Z,6.6
2022-12-22T06:24:52.022Z,6.5
2022-12-22T06:27:52.012Z,6.5
2022-12-22T06:30:52.093Z,6.5
2022-12-22T06:33:52.017Z,6.5
2022-12-22T06:36:52.019Z,6.6
2022-12-22T06:39:52.059Z,6.6
2022-12-22T06:42:52.037Z,6.6
2022-12-22T06:45:52.046Z,6.7
2022-12-22T06:48:52.067Z,6.6
2022-12-22T06:51:52.041Z,6.7
2022-12-22T06:54:52.057Z,6.6
2022-12-22T06:57:52.049Z,6.6
2022-12-22T07:00:52.053Z,6.6
2022-12-22T07:03:52.069Z,6.7
2022-12-22T07:06:52.089Z,6.7
2022-12-22T07:09:52.074Z,6.7
2022-12-22T07:12:52.067Z,6.8
2022-12-22T07:15:59.421Z,6.9
2022-12-22T07:18:52.076Z,6.9
2022-12-22T07:21:52.077Z,6.9
2022-12-22T07:24:52.108Z,6.9
2022-12-22T07:27:52.083Z,7
2022-12-22T07:30:52.146Z,7
2022-12-22T07:33:52.095Z,7
2022-12-22T07:36:52.090Z,7
2022-12-22T07:39:52.115Z,7
2022-12-22T07:42:52.128Z,7.1
2022-12-22T07:45:52.112Z,7.1
2022-12-22T07:48:52.108Z,7.1
2022-12-22T07:51:52.112Z,7.1
2022-12-22T07:54:52.128Z,7.1
2022-12-22T07:57:52.140Z,7.1
2022-12-22T08:00:52.154Z,7.1
2022-12-22T08:03:52.131Z,7.2
2022-12-22T08:06:52.133Z,7.2
2022-12-22T08:09:52.147Z,7.2
2022-12-22T08:12:52.158Z,7.3
2022-12-22T08:15:52.176Z,7.3
2022-12-22T08:18:52.172Z,7.4
2022-12-22T08:21:53.303Z,7.4
2022-12-22T08:24:52.182Z,7.4
2022-12-22T08:27:52.164Z,7.5
2022-12-22T08:30:52.165Z,7.6
2022-12-22T08:33:52.173Z,7.6
2022-12-22T08:36:52.343Z,7.7
2022-12-22T08:39:52.191Z,7.7
2022-12-22T08:42:52.182Z,7.8
2022-12-22T08:45:52.189Z,7.8
2022-12-22T08:48:52.228Z,7.8
2022-12-22T08:51:52.223Z,7.8
2022-12-22T08:54:52.252Z,7.7
2022-12-22T08:57:55.946Z,7.7
2022-12-22T09:00:52.260Z,7.6
2022-12-22T09:03:52.220Z,7.5
2022-12-22T09:06:52.244Z,7.5
2022-12-22T09:09:52.260Z,7.4
2022-12-22T09:12:52.281Z,7.4
2022-12-22T09:15:52.245Z,7.4
2022-12-22T09:18:52.264Z,7.5
2022-12-22T09:21:52.265Z,7.5
2022-12-22T09:24:52.276Z,7.5
2022-12-22T09:27:52.282Z,7.5
2022-12-22T09:30:52.320Z,7.6
2022-12-22T09:33:52.290Z,7.6
2022-12-22T09:36:52.309Z,7.6
2022-12-22T09:39:52.329Z,7.6
2022-12-22T09:42:52.318Z,7.6
2022-12-22T09:45:52.352Z,7.6
2022-12-22T09:48:52.346Z,7.6
2022-12-22T09:51:52.326Z,7.6
2022-12-22T09:54:52.348Z,7.5
2022-12-22T09:57:52.344Z,7.5
2022-12-22T10:00:52.359Z,7.5
2022-12-22T10:03:56.610Z,7.5
2022-12-22T10:06:52.376Z,7.5
2022-12-22T10:09:52.498Z,7.5
2022-12-22T10:12:52.362Z,7.5
2022-12-22T10:15:52.363Z,7.4
2022-12-22T10:18:52.371Z,7.4
2022-12-22T10:21:52.374Z,7.5
2022-12-22T10:24:52.426Z,7.5
2022-12-22T10:27:52.385Z,7.5
2022-12-22T10:30:52.387Z,7.5
2022-12-22T10:33:52.388Z,7.6
2022-12-22T10:36:52.394Z,7.7
2022-12-22T10:39:52.406Z,7.7
2022-12-22T10:42:52.430Z,7.7
2022-12-22T10:45:52.448Z,7.7
2022-12-22T10:48:52.416Z,7.7
2022-12-22T10:51:52.422Z,7.8
2022-12-22T10:54:52.433Z,7.8
2022-12-22T10:57:52.431Z,7.8
2022-12-22T11:00:52.543Z,7.9
2022-12-22T11:03:52.467Z,7.9
2022-12-22T11:06:52.437Z,7.9
2022-12-22T11:09:52.464Z,8
2022-12-22T11:12:52.439Z,8.1
2022-12-22T11:15:52.447Z,8.2
2022-12-22T11:18:52.481Z,8.3
2022-12-22T11:21:52.461Z,8.4
2022-12-22T11:24:52.470Z,8.4
2022-12-22T11:27:52.466Z,8.4
2022-12-22T11:30:52.504Z,8.4
2022-12-22T11:33:52.477Z,8.4
2022-12-22T11:36:52.501Z,8.4
2022-12-22T11:39:57.404Z,8.5
2022-12-22T11:42:52.486Z,8.5
2022-12-22T11:45:52.530Z,8.5
2022-12-22T11:48:52.501Z,8.6
2022-12-22T11:51:52.506Z,8.6
2022-12-22T11:54:52.550Z,8.6
2022-12-22T11:57:52.513Z,8.6
2022-12-22T12:01:22.162Z,8.6
2022-12-22T12:03:52.567Z,8.6
2022-12-22T12:06:52.530Z,8.5
2022-12-22T12:09:52.546Z,8.6
2022-12-22T12:12:52.563Z,8.6
2022-12-22T12:15:52.601Z,8.6
2022-12-22T12:18:52.547Z,8.6
2022-12-22T12:21:52.551Z,8.7
2022-12-22T12:24:52.571Z,8.7
2022-12-22T12:27:52.557Z,8.8
2022-12-22T12:30:52.655Z,8.8
2022-12-22T12:33:52.583Z,8.8
2022-12-22T12:36:52.571Z,8.9
2022-12-22T12:39:52.596Z,8.9
2022-12-22T12:42:52.585Z,8.9
2022-12-22T12:45:52.593Z,8.9
2022-12-22T12:48:52.615Z,9
2022-12-22T12:51:52.595Z,9
2022-12-22T12:54:52.615Z,8.9
2022-12-22T12:57:52.612Z,8.9
2022-12-22T13:00:58.549Z,8.9
2022-12-22T13:04:02.925Z,8.9
2022-12-22T13:06:52.638Z,8.9
2022-12-22T13:09:52.647Z,8.9
2022-12-22T13:12:52.624Z,9
2022-12-22T13:15:52.673Z,9
2022-12-22T13:18:52.627Z,9
2022-12-22T13:21:54.144Z,9
2022-12-22T13:24:52.669Z,9
2022-12-22T13:27:52.643Z,9
2022-12-22T13:30:52.648Z,8.9
2022-12-22T13:33:52.699Z,8.9
2022-12-22T13:36:52.656Z,8.9
2022-12-22T13:39:52.687Z,8.8
2022-12-22T13:42:52.717Z,8.8
2022-12-22T13:45:52.675Z,8.8
2022-12-22T13:48:52.677Z,8.7
2022-12-22T13:51:52.681Z,8.7
2022-12-22T13:54:52.716Z,8.7
2022-12-22T13:57:58.145Z,8.7
2022-12-22T14:00:52.758Z,8.7
2022-12-22T14:04:01.661Z,8.6
2022-12-22T14:06:52.709Z,8.6
2022-12-22T14:09:52.715Z,8.6
2022-12-22T14:12:52.712Z,8.6
2022-12-22T14:15:52.732Z,8.5
2022-12-22T14:18:52.748Z,8.5
2022-12-22T14:21:52.723Z,8.5
2022-12-22T14:24:52.739Z,8.4
2022-12-22T14:27:52.736Z,8.4
2022-12-22T14:30:52.735Z,8.3
2022-12-22T14:33:52.738Z,8.2
2022-12-22T14:36:53.793Z,8.1
2022-12-22T14:39:52.769Z,8
2022-12-22T14:42:52.746Z,7.9
2022-12-22T14:45:52.818Z,7.8
2022-12-22T14:48:52.765Z,7.7
2022-12-22T14:51:57.374Z,7.6
2022-12-22T14:54:52.795Z,7.6
2022-12-22T14:57:52.776Z,7.5
2022-12-22T15:00:52.805Z,7.4
2022-12-22T15:03:52.828Z,7.3
2022-12-22T15:06:52.775Z,7.2
2022-12-22T15:10:18.292Z,7.1
2022-12-22T15:12:52.898Z,7
2022-12-22T15:15:52.787Z,6.9
2022-12-22T15:18:52.794Z,6.9
2022-12-22T15:21:52.790Z,6.9
2022-12-22T15:24:52.798Z,6.8
2022-12-22T15:27:52.794Z,6.8
2022-12-22T15:30:52.867Z,6.7
2022-12-22T15:33:52.806Z,6.7
2022-12-22T15:36:52.821Z,6.6
2022-12-22T15:39:52.828Z,6.5
2022-12-22T15:42:52.818Z,6.4
2022-12-22T15:45:52.870Z,6.4
2022-12-22T15:48:52.855Z,6.4
2022-12-22T15:51:52.856Z,6.4
2022-12-22T15:54:52.870Z,6.4
2022-12-22T15:57:52.868Z,6.4
2022-12-22T16:00:52.981Z,6.3
2022-12-22T16:03:53.064Z,6.3
2022-12-22T16:06:52.925Z,6.2
2022-12-22T16:09:52.929Z,6.2
2022-12-22T16:12:52.911Z,6.1
2022-12-22T16:15:52.929Z,6.1
2022-12-22T16:18:52.915Z,6
2022-12-22T16:21:52.930Z,5.9
2022-12-22T16:24:52.958Z,6
2022-12-22T16:27:52.925Z,6
2022-12-22T16:30:52.969Z,6
2022-12-22T16:33:52.933Z,6
2022-12-22T16:36:52.948Z,6
2022-12-22T16:39:52.946Z,6
2022-12-22T16:45:53.037Z,5.9
2022-12-22T16:48:52.964Z,5.9
2022-12-22T16:51:52.989Z,5.9
2022-12-22T16:54:53.135Z,5.8
2022-12-22T16:57:52.981Z,5.7
2022-12-22T17:00:52.976Z,5.8
2022-12-22T17:03:53.077Z,5.7
2022-12-22T17:06:52.999Z,5.7
2022-12-22T17:09:52.990Z,5.7
2022-12-22T17:12:52.992Z,5.7
2022-12-22T17:15:53.042Z,5.7
2022-12-22T17:18:53.003Z,5.7
2022-12-22T17:21:53.034Z,5.7
2022-12-22T17:24:53.021Z,5.7
2022-12-22T17:27:53.019Z,5.7
2022-12-22T17:30:53.048Z,5.7
2022-12-22T17:33:53.035Z,5.6
2022-12-22T17:36:53.030Z,5.6
2022-12-22T17:39:53.062Z,5.6
2022-12-22T17:42:53.038Z,5.6
2022-12-22T17:45:53.042Z,5.6
2022-12-22T17:48:53.048Z,5.6
2022-12-22T17:51:53.050Z,5.5
2022-12-22T17:54:53.040Z,5.5
2022-12-22T17:57:53.075Z,5.4
2022-12-22T18:00:53.054Z,5.4
2022-12-22T18:03:53.120Z,5.4
2022-12-22T18:06:53.072Z,5.4
2022-12-22T18:09:53.087Z,5.4
2022-12-22T18:12:53.093Z,5.4
2022-12-22T18:15:53.298Z,5.4
2022-12-22T18:18:53.106Z,5.5
2022-12-22T18:21:53.112Z,5.4
2022-12-22T18:24:53.136Z,5.5
2022-12-22T18:27:53.116Z,5.5
2022-12-22T18:30:53.119Z,5.5
2022-12-22T18:33:53.157Z,5.6
2022-12-22T18:36:53.130Z,5.6
2022-12-22T18:39:53.190Z,5.6
2022-12-22T18:42:53.141Z,5.6
2022-12-22T18:45:53.144Z,5.7
2022-12-22T18:48:53.152Z,5.7
2022-12-22T18:51:53.193Z,5.8
2022-12-22T18:54:53.160Z,5.8
2022-12-22T18:57:53.169Z,5.8
2022-12-22T19:00:53.243Z,5.8
2022-12-22T19:03:53.170Z,5.9
2022-12-22T19:06:53.172Z,5.9
2022-12-22T19:09:53.225Z,5.9
2022-12-22T19:12:53.185Z,5.9
2022-12-22T19:15:53.204Z,6
2022-12-22T19:18:53.195Z,6
2022-12-22T19:21:53.202Z,6
2022-12-22T19:24:53.201Z,6.1
2022-12-22T19:27:53.230Z,6.1
2022-12-22T19:30:53.209Z,6.1
2022-12-22T19:33:53.232Z,6.1
2022-12-22T19:36:53.217Z,6.1
2022-12-22T19:39:53.227Z,6.1
2022-12-22T19:42:53.231Z,6.1
2022-12-22T19:45:53.305Z,6.2
2022-12-22T19:48:53.237Z,6.2
2022-12-22T19:51:53.245Z,6.1
2022-12-22T19:54:53.253Z,6.1
2022-12-22T19:57:53.249Z,6.1
2022-12-22T20:00:53.321Z,6.1
2022-12-22T20:03:53.373Z,6.1
2022-12-22T20:06:53.273Z,6.1
2022-12-22T20:09:53.290Z,6
2022-12-22T20:12:53.334Z,6
2022-12-22T20:15:53.286Z,6
2022-12-22T20:18:53.295Z,5.9
2022-12-22T20:21:53.321Z,5.9
2022-12-22T20:24:53.303Z,5.8
2022-12-22T20:27:53.302Z,5.8
2022-12-22T20:30:53.308Z,5.7
2022-12-22T20:33:53.309Z,5.7
2022-12-22T20:36:53.348Z,5.6
2022-12-22T20:39:53.336Z,5.7
2022-12-22T20:42:53.319Z,5.7
2022-12-22T20:45:53.397Z,5.7
2022-12-22T20:48:53.322Z,5.7
2022-12-22T20:51:53.327Z,5.7
2022-12-22T20:54:53.331Z,5.7
2022-12-22T20:57:53.363Z,5.8
2022-12-22T21:00:53.348Z,5.7
2022-12-22T21:03:53.446Z,5.7
2022-12-22T21:06:53.358Z,5.8
2022-12-22T21:09:53.358Z,5.8
2022-12-22T21:12:53.359Z,5.8
2022-12-22T21:15:53.394Z,5.9
2022-12-22T21:18:53.371Z,5.9
2022-12-22T21:21:53.378Z,5.9
2022-12-22T21:24:53.376Z,5.9
2022-12-22T21:27:53.389Z,5.9
2022-12-22T21:30:53.460Z,6
2022-12-22T21:33:53.428Z,6
2022-12-22T21:36:53.412Z,6
2022-12-22T21:39:53.418Z,5.9
2022-12-22T21:42:53.435Z,5.9
2022-12-22T21:45:53.514Z,5.9
2022-12-22T21:48:53.430Z,5.8
2022-12-22T21:51:53.500Z,5.8
2022-12-22T21:54:53.454Z,5.8
2022-12-22T21:57:53.455Z,5.8
2022-12-22T22:00:53.460Z,5.8
2022-12-22T22:03:53.533Z,5.9
2022-12-22T22:06:53.478Z,6
2022-12-22T22:09:53.500Z,6
2022-12-22T22:12:53.485Z,6
2022-12-22T22:15:53.505Z,6.1
2022-12-22T22:18:53.479Z,6.1
2022-12-22T22:21:53.489Z,6.2
2022-12-22T22:24:53.499Z,6.2
2022-12-22T22:27:53.526Z,6.2
2022-12-22T22:30:53.548Z,6.3
2022-12-22T22:33:53.503Z,6.3
2022-12-22T22:36:53.504Z,6.3
2022-12-22T22:39:53.517Z,6.3
2022-12-22T22:42:53.510Z,6.3
2022-12-22T22:45:53.535Z,6.3
2022-12-22T22:48:53.517Z,6.3
2022-12-22T22:51:53.522Z,6.3
2022-12-22T22:54:53.527Z,6.3
2022-12-22T22:57:53.527Z,6.4
2022-12-22T23:00:53.539Z,6.4
2022-12-22T23:03:53.629Z,6.4
2022-12-22T23:06:53.544Z,6.5
2022-12-22T23:09:53.548Z,6.5
2022-12-22T23:12:53.556Z,6.5
2022-12-22T23:15:53.598Z,6.5
2022-12-22T23:18:53.620Z,6.5
2022-12-22T23:21:53.594Z,6.6
2022-12-22T23:24:53.580Z,6.6
2022-12-22T23:27:53.589Z,6.6
2022-12-22T23:30:53.695Z,6.6
2022-12-22T23:33:53.598Z,6.6
2022-12-22T23:36:53.594Z,6.6
2022-12-22T23:39:53.626Z,6.6
2022-12-22T23:42:56.928Z,6.7
2022-12-22T23:45:53.612Z,6.6
2022-12-22T23:48:53.617Z,6.7
2022-12-22T23:51:53.615Z,6.7
2022-12-22T23:54:53.622Z,6.7
2022-12-22T23:57:53.651Z,6.7
